Time;durP1;ratioP1;P1;durP2;ratioP2;P2;SDS_P1;SDS_P2;PMS_P1;PMS_P2;Temp;Humidity;BMP_temperature;BMP_pressure;BME280_temperature;BME280_humidity;BME280_pressure;Samples;Min_cycle;Max_cycle;Signal;HPM_P1;HPM_P2
2023/01/13 00:00:43;;;;;;;24.63;3.45;;;;;;;;;;5111076;28;20047;-73
2023/01/13 00:03:09;;;;;;;20.60;3.30;;;;;;;;;;5108852;28;21288;-73
2023/01/13 00:05:36;;;;;;;19.95;3.42;;;;;;;;;;5112035;28;20092;-73
2023/01/13 00:08:04;;;;;;;21.77;3.75;;;;;;;;;;5113204;28;20051;-72
2023/01/13 00:10:30;;;;;;;22.00;3.80;;;;;;;;;;5110848;28;20040;-73
2023/01/13 00:12:56;;;;;;;19.95;3.40;;;;;;;;;;5112305;28;20048;-73
2023/01/13 00:15:22;;;;;;;22.02;3.40;;;;;;;;;;5107151;28;20051;-73
2023/01/13 00:17:48;;;;;;;19.75;3.85;;;;;;;;;;5110371;28;20044;-73
2023/01/13 00:20:14;;;;;;;27.00;4.40;;;;;;;;;;5113070;28;20054;-73
2023/01/13 00:22:40;;;;;;;23.05;4.10;;;;;;;;;;5111856;28;20442;-72
2023/01/13 00:25:07;;;;;;;22.70;4.40;;;;;;;;;;5120739;28;20039;-73
2023/01/13 00:27:33;;;;;;;21.83;4.00;;;;;;;;;;5110272;28;20401;-73
2023/01/13 00:29:59;;;;;;;23.95;3.67;;;;;;;;;;5110412;28;20114;-73
2023/01/13 00:32:25;;;;;;;25.27;4.25;;;;;;;;;;5110504;28;20044;-72
2023/01/13 00:34:51;;;;;;;27.80;4.28;;;;;;;;;;5109573;28;20093;-73
2023/01/13 00:37:17;;;;;;;25.45;4.40;;;;;;;;;;5108035;28;20040;-73
2023/01/13 00:39:44;;;;;;;38.08;5.82;;;;;;;;;;5107094;28;20039;-72
2023/01/13 00:44:55;;;;;;;29.30;4.90;;;;;;;;;;5110023;28;20040;-72
2023/01/13 00:47:25;;;;;;;30.17;5.32;;;;;;;;;;5114746;28;20036;-73
2023/01/13 00:49:51;;;;;;;33.25;5.45;;;;;;;;;;5116756;27;20055;-73
2023/01/13 00:52:17;;;;;;;35.42;5.78;;;;;;;;;;5114649;28;20611;-73
2023/01/13 00:54:43;;;;;;;31.15;5.00;;;;;;;;;;5122918;27;20447;-73
2023/01/13 00:57:09;;;;;;;37.67;6.28;;;;;;;;;;5118332;27;20051;-73
2023/01/13 00:59:35;;;;;;;35.58;6.00;;;;;;;;;;5116592;28;20084;-72
2023/01/13 01:02:01;;;;;;;31.00;6.10;;;;;;;;;;5117088;28;20413;-73
2023/01/13 01:04:27;;;;;;;34.75;6.10;;;;;;;;;;5107398;28;20059;-75
2023/01/13 01:06:53;;;;;;;34.83;5.82;;;;;;;;;;5095755;28;20052;-74
2023/01/13 01:09:19;;;;;;;33.78;5.75;;;;;;;;;;5103413;28;20122;-72
2023/01/13 01:11:45;;;;;;;31.90;5.30;;;;;;;;;;5116322;28;20054;-73
2023/01/13 01:14:12;;;;;;;37.92;6.20;;;;;;;;;;5116107;28;20040;-74
2023/01/13 01:16:40;;;;;;;34.42;5.13;;;;;;;;;;5106753;28;20040;-72
2023/01/13 01:19:06;;;;;;;39.00;5.68;;;;;;;;;;5112436;28;20402;-72
2023/01/13 01:21:35;;;;;;;24.80;4.25;;;;;;;;;;5114956;28;20493;-72
2023/01/13 01:24:02;;;;;;;27.80;4.28;;;;;;;;;;5113944;27;20130;-72
2023/01/13 01:26:29;;;;;;;32.38;5.28;;;;;;;;;;5122839;27;20096;-72
2023/01/13 01:28:55;;;;;;;32.35;4.97;;;;;;;;;;5112777;28;20549;-72
2023/01/13 01:31:21;;;;;;;30.75;4.72;;;;;;;;;;5111599;28;20101;-72
2023/01/13 01:33:48;;;;;;;31.27;5.13;;;;;;;;;;5113509;28;20473;-72
2023/01/13 01:36:15;;;;;;;32.38;4.40;;;;;;;;;;5109685;28;20476;-72
2023/01/13 01:38:41;;;;;;;23.95;3.72;;;;;;;;;;5110323;28;20413;-72
2023/01/13 01:41:07;;;;;;;30.02;4.93;;;;;;;;;;5113923;28;20408;-72
2023/01/13 01:43:58;;;;;;;23.65;4.18;;;;;;;;;;5102401;28;20478;-71
2023/01/13 01:46:30;;;;;;;29.63;5.00;;;;;;;;;;5105068;28;20112;-72
2023/01/13 01:48:59;;;;;;;30.15;4.53;;;;;;;;;;5106615;28;20131;-72
2023/01/13 01:51:26;;;;;;;28.85;4.97;;;;;;;;;;5114057;28;20051;-72
2023/01/13 01:53:53;;;;;;;29.17;5.10;;;;;;;;;;5115831;27;20115;-72
2023/01/13 01:56:19;;;;;;;27.05;4.35;;;;;;;;;;5107380;27;20405;-72
2023/01/13 01:58:49;;;;;;;29.13;5.10;;;;;;;;;;5094624;28;20036;-71
2023/01/13 02:01:16;;;;;;;33.85;5.40;;;;;;;;;;5112578;28;20048;-72
2023/01/13 02:03:44;;;;;;;27.50;4.35;;;;;;;;;;5114517;28;20457;-72
2023/01/13 02:06:11;;;;;;;32.70;6.32;;;;;;;;;;5116338;27;20055;-74
2023/01/13 02:08:38;;;;;;;27.35;4.88;;;;;;;;;;5115097;28;20046;-74
2023/01/13 02:11:04;;;;;;;29.77;5.10;;;;;;;;;;5097130;27;20397;-73
2023/01/13 02:13:30;;;;;;;29.33;5.07;;;;;;;;;;5094032;28;20048;-73
2023/01/13 02:16:16;;;;;;;30.83;5.13;;;;;;;;;;5106478;28;20081;-74
2023/01/13 02:18:48;;;;;;;34.33;5.30;;;;;;;;;;5110676;28;20100;-73
2023/01/13 02:21:17;;;;;;;36.92;5.40;;;;;;;;;;5113623;28;20032;-73
2023/01/13 02:27:13;;;;;;;33.05;5.35;;;;;;;;;;5104190;27;20048;-73
2023/01/13 02:33:01;;;;;;;35.10;5.15;;;;;;;;;;5100697;28;20044;-73
2023/01/13 02:35:31;;;;;;;33.35;5.13;;;;;;;;;;5109197;28;20040;-73
2023/01/13 02:37:59;;;;;;;34.00;5.53;;;;;;;;;;5109771;28;20039;-73
2023/01/13 02:40:37;;;;;;;32.35;5.20;;;;;;;;;;5113192;28;20089;-73
2023/01/13 02:46:07;;;;;;;33.88;5.43;;;;;;;;;;5111864;28;20063;-73
2023/01/13 02:48:34;;;;;;;30.73;5.20;;;;;;;;;;5105259;27;20044;-73
2023/01/13 02:51:02;;;;;;;30.45;5.28;;;;;;;;;;5106953;28;20410;-72
2023/01/13 02:53:33;;;;;;;33.25;5.65;;;;;;;;;;5112377;28;20043;-73
2023/01/13 02:56:00;;;;;;;28.10;4.90;;;;;;;;;;5093486;28;20409;-73
2023/01/13 02:58:28;;;;;;;40.80;6.13;;;;;;;;;;5093582;28;20366;-73
2023/01/13 03:00:54;;;;;;;31.52;4.85;;;;;;;;;;5093509;28;20137;-73
2023/01/13 03:03:20;;;;;;;34.42;5.05;;;;;;;;;;5093593;28;20059;-73
2023/01/13 03:05:48;;;;;;;28.20;5.57;;;;;;;;;;5099444;28;20100;-73
2023/01/13 03:08:26;;;;;;;35.50;5.93;;;;;;;;;;5112572;28;20036;-72
2023/01/13 03:11:03;;;;;;;39.00;5.70;;;;;;;;;;5112765;28;20046;-73
2023/01/13 03:13:55;;;;;;;29.55;5.47;;;;;;;;;;5113933;28;20481;-73
2023/01/13 03:16:21;;;;;;;36.67;5.75;;;;;;;;;;5113734;28;20046;-73
2023/01/13 03:19:06;;;;;;;32.50;5.60;;;;;;;;;;5112804;28;20382;-73
2023/01/13 03:21:38;;;;;;;28.10;5.00;;;;;;;;;;5110201;27;20393;-73
2023/01/13 03:24:08;;;;;;;37.85;5.55;;;;;;;;;;5111131;28;20038;-73
2023/01/13 03:26:38;;;;;;;34.03;5.43;;;;;;;;;;5096472;28;20039;-73
2023/01/13 03:29:09;;;;;;;31.58;5.53;;;;;;;;;;5112625;28;20038;-73
2023/01/13 03:31:38;;;;;;;33.03;5.95;;;;;;;;;;5106480;28;20047;-73
2023/01/13 03:34:07;;;;;;;37.03;5.55;;;;;;;;;;5109140;28;20097;-73
2023/01/13 03:36:34;;;;;;;41.83;5.65;;;;;;;;;;5113482;28;20119;-73
2023/01/13 03:39:04;;;;;;;38.08;5.85;;;;;;;;;;5110100;28;20531;-73
2023/01/13 03:41:40;;;;;;;33.70;6.22;;;;;;;;;;5109117;28;20034;-73
2023/01/13 03:44:22;;;;;;;29.33;4.85;;;;;;;;;;5109792;28;20031;-71
2023/01/13 03:46:57;;;;;;;32.58;5.32;;;;;;;;;;5105809;28;20181;-73
2023/01/13 03:49:25;;;;;;;36.40;6.50;;;;;;;;;;5100428;28;20048;-73
2023/01/13 03:51:54;;;;;;;37.65;5.72;;;;;;;;;;5119651;28;20046;-73
2023/01/13 03:54:22;;;;;;;37.00;5.65;;;;;;;;;;5112642;27;20047;-73
2023/01/13 03:56:55;;;;;;;36.83;5.60;;;;;;;;;;5112193;28;20497;-73
2023/01/13 03:59:23;;;;;;;38.67;6.00;;;;;;;;;;5103215;28;20040;-73
2023/01/13 04:01:59;;;;;;;34.42;5.22;;;;;;;;;;5104591;28;20040;-73
2023/01/13 04:04:28;;;;;;;28.27;5.03;;;;;;;;;;5111475;28;20051;-73
2023/01/13 04:07:00;;;;;;;32.42;5.63;;;;;;;;;;5112140;28;20044;-73
2023/01/13 04:09:26;;;;;;;39.25;5.30;;;;;;;;;;5111255;28;20532;-73
2023/01/13 04:12:12;;;;;;;40.78;5.78;;;;;;;;;;5111852;28;20067;-73
2023/01/13 04:14:38;;;;;;;38.78;5.68;;;;;;;;;;5110978;28;20051;-73
2023/01/13 04:17:05;;;;;;;34.90;5.70;;;;;;;;;;5102284;28;20039;-73
2023/01/13 04:19:31;;;;;;;38.13;5.55;;;;;;;;;;5111841;28;20043;-72
2023/01/13 04:21:58;;;;;;;30.92;5.53;;;;;;;;;;5110721;27;20055;-73
2023/01/13 04:24:24;;;;;;;35.30;5.13;;;;;;;;;;5115755;28;20050;-73
2023/01/13 04:26:50;;;;;;;35.03;5.75;;;;;;;;;;5115809;28;20043;-73
2023/01/13 04:29:16;;;;;;;35.70;5.63;;;;;;;;;;5111412;28;20048;-73
2023/01/13 04:31:42;;;;;;;33.30;5.75;;;;;;;;;;5114495;28;20047;-73
2023/01/13 04:34:12;;;;;;;32.55;5.18;;;;;;;;;;5113209;28;20047;-73
2023/01/13 04:36:38;;;;;;;41.08;6.85;;;;;;;;;;5114831;28;20071;-73
2023/01/13 04:39:04;;;;;;;32.63;5.40;;;;;;;;;;5112037;28;20080;-75
2023/01/13 04:41:56;;;;;;;37.10;5.47;;;;;;;;;;5114330;28;20043;-73
2023/01/13 04:44:19;;;;;;;47.30;7.32;;;;;;;;;;5111660;28;20107;-73
2023/01/13 04:46:45;;;;;;;37.55;5.13;;;;;;;;;;5116705;27;20035;-73
2023/01/13 04:49:11;;;;;;;36.45;6.03;;;;;;;;;;5104534;28;20048;-72
2023/01/13 04:51:37;;;;;;;37.75;6.82;;;;;;;;;;5110960;28;20042;-72
2023/01/13 04:54:03;;;;;;;32.88;5.88;;;;;;;;;;5116372;28;20051;-73
2023/01/13 04:56:29;;;;;;;34.47;5.65;;;;;;;;;;5114909;28;20051;-73
2023/01/13 04:58:55;;;;;;;37.80;6.05;;;;;;;;;;5097960;28;20485;-73
2023/01/13 05:01:21;;;;;;;35.80;5.63;;;;;;;;;;5097722;28;20040;-73
2023/01/13 05:03:47;;;;;;;33.67;5.97;;;;;;;;;;5095606;28;20052;-73
2023/01/13 05:06:13;;;;;;;33.85;5.95;;;;;;;;;;5111867;28;20505;-73
2023/01/13 05:08:40;;;;;;;35.65;5.43;;;;;;;;;;5114509;28;20040;-73
2023/01/13 05:16:58;;;;;;;38.67;5.30;;;;;;;;;;5114772;28;20050;-74
2023/01/13 05:19:21;;;;;;;34.92;5.82;;;;;;;;;;5110660;28;20408;-72
2023/01/13 05:27:17;;;;;;;29.77;5.10;;;;;;;;;;5114203;28;20054;-74
2023/01/13 05:29:43;;;;;;;33.70;5.25;;;;;;;;;;5114576;28;20032;-71
2023/01/13 05:32:09;;;;;;;38.95;5.95;;;;;;;;;;5114506;28;20058;-72
2023/01/13 05:34:35;;;;;;;36.60;5.60;;;;;;;;;;5109998;28;20047;-71
2023/01/13 05:37:02;;;;;;;35.28;5.05;;;;;;;;;;5112111;28;20046;-72
2023/01/13 05:43:18;;;;;;;32.80;6.15;;;;;;;;;;5113129;28;20058;-72
2023/01/13 05:44:58;;;;;;;35.25;5.43;;;;;;;;;;5123216;27;20047;-72
2023/01/13 05:47:24;;;;;;;31.33;4.63;;;;;;;;;;5120450;27;20047;-72
2023/01/13 05:49:50;;;;;;;31.48;4.68;;;;;;;;;;5109748;28;20047;-72
2023/01/13 05:52:17;;;;;;;29.77;5.65;;;;;;;;;;5112287;28;20035;-72
2023/01/13 05:54:43;;;;;;;36.30;5.50;;;;;;;;;;5111007;28;20051;-72
2023/01/13 05:57:09;;;;;;;28.65;4.85;;;;;;;;;;5112148;28;20134;-72
2023/01/13 05:59:35;;;;;;;28.55;4.63;;;;;;;;;;5104279;28;20379;-72
2023/01/13 06:02:01;;;;;;;24.63;4.72;;;;;;;;;;5101727;28;20048;-72
2023/01/13 06:04:27;;;;;;;33.97;5.30;;;;;;;;;;5097585;28;20176;-72
2023/01/13 06:06:54;;;;;;;27.92;4.82;;;;;;;;;;5109719;28;20044;-72
2023/01/13 06:09:21;;;;;;;29.98;4.65;;;;;;;;;;5102378;28;20141;-72
2023/01/13 06:11:47;;;;;;;27.13;4.60;;;;;;;;;;5094478;28;20082;-72
2023/01/13 06:14:13;;;;;;;35.30;5.75;;;;;;;;;;5113609;28;20040;-72
2023/01/13 06:16:39;;;;;;;28.88;4.68;;;;;;;;;;5113843;27;20460;-72
2023/01/13 06:19:07;;;;;;;27.02;5.20;;;;;;;;;;5113465;27;20032;-72
2023/01/13 06:21:34;;;;;;;21.65;3.83;;;;;;;;;;5111052;27;20472;-72
2023/01/13 06:24:00;;;;;;;23.67;4.25;;;;;;;;;;5113383;28;20051;-72
2023/01/13 06:26:28;;;;;;;27.70;4.82;;;;;;;;;;5111358;28;20486;-72
2023/01/13 06:28:54;;;;;;;31.42;4.45;;;;;;;;;;5113613;28;20047;-72
2023/01/13 06:31:20;;;;;;;25.55;4.75;;;;;;;;;;5108378;28;20043;-72
2023/01/13 06:33:53;;;;;;;28.77;4.18;;;;;;;;;;5108888;28;20043;-72
2023/01/13 06:36:21;;;;;;;29.85;4.85;;;;;;;;;;5103222;28;20432;-72
2023/01/13 06:38:51;;;;;;;24.67;4.07;;;;;;;;;;5100305;27;20066;-72
2023/01/13 06:43:13;;;;;;;24.38;5.00;;;;;;;;;;5109622;27;20169;-70
2023/01/13 06:44:03;;;;;;;22.45;4.22;;;;;;;;;;5111064;28;20047;-72
2023/01/13 06:46:30;;;;;;;26.20;3.85;;;;;;;;;;5104194;28;20044;-72
2023/01/13 06:48:56;;;;;;;23.02;3.78;;;;;;;;;;5097217;28;20447;-72
2023/01/13 06:51:22;;;;;;;20.58;3.75;;;;;;;;;;5113384;28;20393;-72
2023/01/13 06:53:48;;;;;;;21.65;3.90;;;;;;;;;;5108228;28;20044;-72
2023/01/13 06:56:14;;;;;;;17.38;3.42;;;;;;;;;;5102884;28;20051;-72
2023/01/13 06:58:40;;;;;;;22.98;3.78;;;;;;;;;;5113346;28;20039;-72
2023/01/13 07:01:06;;;;;;;21.35;3.72;;;;;;;;;;5113932;28;20050;-72
2023/01/13 07:03:32;;;;;;;22.58;3.15;;;;;;;;;;5111590;27;20517;-72
2023/01/13 07:05:59;;;;;;;23.00;3.85;;;;;;;;;;5104262;28;20124;-72
2023/01/13 07:08:25;;;;;;;17.80;3.42;;;;;;;;;;5108672;28;20051;-72
2023/01/13 07:10:51;;;;;;;19.35;3.58;;;;;;;;;;5093970;28;20464;-73
2023/01/13 07:16:04;;;;;;;20.83;3.63;;;;;;;;;;5106939;28;20079;-73
2023/01/13 07:18:31;;;;;;;22.10;3.88;;;;;;;;;;5107351;28;20066;-73
2023/01/13 07:21:08;;;;;;;19.40;3.92;;;;;;;;;;5093417;28;20101;-73
2023/01/13 07:23:35;;;;;;;21.75;3.10;;;;;;;;;;5101576;27;20122;-73
2023/01/13 07:26:02;;;;;;;15.27;3.53;;;;;;;;;;5092652;28;20040;-73
2023/01/13 07:28:28;;;;;;;19.38;3.20;;;;;;;;;;5091094;28;20473;-72
2023/01/13 07:30:54;;;;;;;20.60;3.35;;;;;;;;;;5112330;28;20067;-73
2023/01/13 07:33:20;;;;;;;22.25;3.08;;;;;;;;;;5107875;27;20043;-73
2023/01/13 07:35:47;;;;;;;19.70;3.25;;;;;;;;;;5103073;28;20039;-73
2023/01/13 07:38:13;;;;;;;19.50;3.17;;;;;;;;;;5112645;28;20405;-73
2023/01/13 07:40:40;;;;;;;22.67;3.22;;;;;;;;;;5106346;28;20719;-73
2023/01/13 07:45:55;;;;;;;23.00;3.20;;;;;;;;;;5101526;28;20466;-73
2023/01/13 07:48:21;;;;;;;20.15;3.13;;;;;;;;;;5113252;27;20031;-73
2023/01/13 07:50:47;;;;;;;25.83;5.28;;;;;;;;;;5098953;28;20047;-77
2023/01/13 07:53:13;;;;;;;27.98;5.68;;;;;;;;;;5094928;28;20097;-72
2023/01/13 07:55:43;;;;;;;26.95;5.82;;;;;;;;;;5097623;28;20036;-74
2023/01/13 07:58:09;;;;;;;25.10;4.75;;;;;;;;;;5097734;27;20160;-74
2023/01/13 08:00:36;;;;;;;28.95;6.60;;;;;;;;;;5097177;28;20072;-72
2023/01/13 08:03:02;;;;;;;21.90;4.93;;;;;;;;;;5110422;28;20413;-74
2023/01/13 08:05:28;;;;;;;21.45;4.03;;;;;;;;;;5107295;28;20059;-74
2023/01/13 08:07:54;;;;;;;18.27;3.45;;;;;;;;;;5102227;27;20040;-72
2023/01/13 08:10:20;;;;;;;18.02;3.90;;;;;;;;;;5110436;28;20048;-74
2023/01/13 08:15:33;;;;;;;19.83;3.38;;;;;;;;;;5104532;28;20051;-74
2023/01/13 08:17:59;;;;;;;22.00;3.58;;;;;;;;;;5103168;27;20048;-74
2023/01/13 08:20:25;;;;;;;21.98;3.90;;;;;;;;;;5099476;28;20105;-72
2023/01/13 08:22:55;;;;;;;19.83;3.50;;;;;;;;;;5116785;28;20620;-73
2023/01/13 08:25:21;;;;;;;22.45;3.20;;;;;;;;;;5111323;27;20040;-73
2023/01/13 08:27:50;;;;;;;21.48;3.60;;;;;;;;;;5103001;28;20056;-73
2023/01/13 08:30:16;;;;;;;25.20;4.15;;;;;;;;;;5113238;27;20043;-73
2023/01/13 08:32:46;;;;;;;22.60;3.65;;;;;;;;;;5100452;27;20365;-73
2023/01/13 08:35:14;;;;;;;24.67;3.65;;;;;;;;;;5103573;27;20048;-73
2023/01/13 08:37:40;;;;;;;22.38;3.72;;;;;;;;;;5109870;28;20055;-73
2023/01/13 08:40:07;;;;;;;21.13;3.65;;;;;;;;;;5116751;27;20044;-74
2023/01/13 08:42:33;;;;;;;25.42;3.67;;;;;;;;;;5114795;27;20036;-73
2023/01/13 08:45:00;;;;;;;22.65;3.63;;;;;;;;;;5097048;28;20040;-74
2023/01/13 08:47:29;;;;;;;20.05;3.38;;;;;;;;;;5106944;28;20039;-74
2023/01/13 08:49:55;;;;;;;30.80;3.97;;;;;;;;;;5103406;28;20035;-74
2023/01/13 08:52:21;;;;;;;22.20;3.42;;;;;;;;;;5115872;28;20051;-74
2023/01/13 08:54:47;;;;;;;22.55;4.10;;;;;;;;;;5107229;28;20486;-74
2023/01/13 08:57:18;;;;;;;21.80;4.50;;;;;;;;;;5105246;27;20043;-74
2023/01/13 08:59:45;;;;;;;21.88;3.90;;;;;;;;;;5110707;28;20057;-74
2023/01/13 09:02:18;;;;;;;30.30;4.65;;;;;;;;;;5109199;28;20040;-74
2023/01/13 09:04:45;;;;;;;27.15;3.70;;;;;;;;;;5095786;28;20073;-74
2023/01/13 09:07:11;;;;;;;26.13;4.10;;;;;;;;;;5124046;27;20047;-72
2023/01/13 09:09:38;;;;;;;26.38;4.18;;;;;;;;;;5115393;27;20043;-73
2023/01/13 09:14:49;;;;;;;26.23;3.95;;;;;;;;;;5094775;28;20471;-73
2023/01/13 09:17:15;;;;;;;25.63;4.50;;;;;;;;;;5113734;27;20370;-75
2023/01/13 09:19:42;;;;;;;21.05;4.00;;;;;;;;;;5114285;28;20131;-72
2023/01/13 09:22:13;;;;;;;20.88;3.28;;;;;;;;;;5113928;28;20040;-74
2023/01/13 09:24:39;;;;;;;34.65;4.10;;;;;;;;;;5115048;28;20397;-72
2023/01/13 09:27:05;;;;;;;26.25;3.75;;;;;;;;;;5096413;28;20073;-73
2023/01/13 09:29:31;;;;;;;22.60;3.70;;;;;;;;;;5114844;28;20043;-71
2023/01/13 09:31:58;;;;;;;22.67;3.60;;;;;;;;;;5108669;28;20052;-71
2023/01/13 09:37:09;;;;;;;21.27;4.30;;;;;;;;;;5094281;28;20097;-72
2023/01/13 09:39:35;;;;;;;24.90;3.78;;;;;;;;;;5104944;28;20048;-74
2023/01/13 09:45:10;;;;;;;27.05;4.22;;;;;;;;;;5109720;27;20447;-72
2023/01/13 09:47:56;;;;;;;21.42;3.80;;;;;;;;;;5111205;28;20040;-72
2023/01/13 09:50:32;;;;;;;24.73;3.97;;;;;;;;;;5093567;28;20040;-72
2023/01/13 09:52:59;;;;;;;23.00;3.75;;;;;;;;;;5094328;28;20044;-72
2023/01/13 09:55:32;;;;;;;24.05;3.83;;;;;;;;;;5096645;28;20443;-72
2023/01/13 09:58:00;;;;;;;23.00;4.03;;;;;;;;;;5098492;28;20063;-72
2023/01/13 10:00:29;;;;;;;25.25;4.30;;;;;;;;;;5103935;28;20055;-71
2023/01/13 10:02:55;;;;;;;21.50;3.78;;;;;;;;;;5094735;28;20044;-72
2023/01/13 10:05:27;;;;;;;22.35;4.30;;;;;;;;;;5100503;27;20123;-72
2023/01/13 10:08:04;;;;;;;25.77;3.67;;;;;;;;;;5114072;27;20035;-72
2023/01/13 10:10:50;;;;;;;23.98;3.80;;;;;;;;;;5108188;28;20055;-72
2023/01/13 10:13:18;;;;;;;27.73;4.57;;;;;;;;;;5107058;28;20048;-72
2023/01/13 10:15:55;;;;;;;27.77;4.75;;;;;;;;;;5108687;27;20534;-73
2023/01/13 10:18:23;;;;;;;25.88;4.30;;;;;;;;;;5110660;28;20119;-73
2023/01/13 10:20:54;;;;;;;27.88;5.75;;;;;;;;;;5107346;28;20032;-71
2023/01/13 10:23:37;;;;;;;24.85;4.47;;;;;;;;;;5109512;28;20081;-73
2023/01/13 10:26:06;;;;;;;28.98;5.35;;;;;;;;;;5111113;28;20044;-73
2023/01/13 10:28:32;;;;;;;27.30;5.18;;;;;;;;;;5107268;28;20044;-73
2023/01/13 10:30:59;;;;;;;22.88;4.88;;;;;;;;;;5105730;28;20039;-73
2023/01/13 10:33:29;;;;;;;24.70;5.68;;;;;;;;;;5119204;27;20092;-73
2023/01/13 10:36:13;;;;;;;22.75;4.50;;;;;;;;;;5105787;27;20569;-73
2023/01/13 10:38:42;;;;;;;31.48;5.13;;;;;;;;;;5100184;27;20039;-73
2023/01/13 10:41:40;;;;;;;32.78;4.47;;;;;;;;;;5107072;27;20054;-73
2023/01/13 10:44:14;;;;;;;22.85;3.95;;;;;;;;;;5089821;27;20056;-73
2023/01/13 10:46:54;;;;;;;26.38;4.45;;;;;;;;;;5111737;27;20450;-72
2023/01/13 10:49:26;;;;;;;27.27;4.35;;;;;;;;;;5100720;27;20092;-72
2023/01/13 10:51:52;;;;;;;25.08;3.97;;;;;;;;;;5111147;28;20054;-72
2023/01/13 10:54:22;;;;;;;28.45;4.20;;;;;;;;;;5111944;28;20603;-72
2023/01/13 10:56:49;;;;;;;25.25;4.47;;;;;;;;;;5095748;27;20083;-71
2023/01/13 10:59:22;;;;;;;28.00;4.60;;;;;;;;;;5092845;28;20048;-72
2023/01/13 11:02:00;;;;;;;25.45;3.88;;;;;;;;;;5109984;27;20039;-72
2023/01/13 11:04:26;;;;;;;29.13;4.50;;;;;;;;;;5112039;27;20242;-72
2023/01/13 11:06:52;;;;;;;27.05;4.90;;;;;;;;;;5086561;28;20047;-72
2023/01/13 11:09:19;;;;;;;30.10;5.28;;;;;;;;;;5092487;28;20390;-72
2023/01/13 11:11:48;;;;;;;26.67;5.13;;;;;;;;;;5094543;27;20047;-72
2023/01/13 11:17:01;;;;;;;32.33;4.75;;;;;;;;;;5107287;27;20044;-72
2023/01/13 11:19:30;;;;;;;27.52;4.97;;;;;;;;;;5095027;27;20047;-72
2023/01/13 11:22:06;;;;;;;29.35;4.28;;;;;;;;;;5108647;28;20044;-72
2023/01/13 11:24:35;;;;;;;24.13;3.85;;;;;;;;;;5109198;27;20051;-72
2023/01/13 11:27:06;;;;;;;24.38;5.68;;;;;;;;;;5092503;28;20039;-72
2023/01/13 11:29:41;;;;;;;25.63;5.25;;;;;;;;;;5093136;28;20056;-72
2023/01/13 11:32:12;;;;;;;29.05;4.20;;;;;;;;;;5092984;28;20047;-72
2023/01/13 11:34:40;;;;;;;26.10;4.63;;;;;;;;;;5103389;28;20049;-72
2023/01/13 11:37:19;;;;;;;26.38;5.43;;;;;;;;;;5112734;28;20046;-72
2023/01/13 11:39:57;;;;;;;27.92;4.18;;;;;;;;;;5096889;28;20093;-73
2023/01/13 11:42:31;;;;;;;22.88;3.72;;;;;;;;;;5090737;28;20394;-73
2023/01/13 11:45:07;;;;;;;26.13;4.53;;;;;;;;;;5106567;28;20505;-73
2023/01/13 11:47:35;;;;;;;29.38;4.93;;;;;;;;;;5122153;28;20052;-73
2023/01/13 11:50:01;;;;;;;22.60;3.78;;;;;;;;;;5101883;28;20043;-72
2023/01/13 11:52:32;;;;;;;28.70;4.13;;;;;;;;;;5111417;28;20413;-73
2023/01/13 11:55:04;;;;;;;28.63;3.95;;;;;;;;;;5103807;28;20390;-72
2023/01/13 11:57:41;;;;;;;30.80;4.90;;;;;;;;;;5107691;28;20048;-72
2023/01/13 12:00:17;;;;;;;27.00;4.32;;;;;;;;;;5109586;28;20052;-72
2023/01/13 12:02:46;;;;;;;26.95;4.53;;;;;;;;;;5110118;28;20043;-72
2023/01/13 12:05:18;;;;;;;25.20;4.43;;;;;;;;;;5106044;28;20060;-73
2023/01/13 12:07:50;;;;;;;24.25;4.30;;;;;;;;;;5108429;28;20065;-72
2023/01/13 12:10:27;;;;;;;26.13;3.95;;;;;;;;;;5108959;28;20035;-72
2023/01/13 12:13:16;;;;;;;22.23;4.35;;;;;;;;;;5107438;28;20521;-72
2023/01/13 12:15:52;;;;;;;23.35;3.70;;;;;;;;;;5108294;27;20044;-73
2023/01/13 12:18:25;;;;;;;25.55;4.22;;;;;;;;;;5103750;28;20048;-73
2023/01/13 12:20:58;;;;;;;24.80;4.15;;;;;;;;;;5108661;28;20043;-73
2023/01/13 12:23:37;;;;;;;25.33;4.63;;;;;;;;;;5108847;28;20055;-72
2023/01/13 12:26:07;;;;;;;24.98;4.47;;;;;;;;;;5104547;28;20498;-72
2023/01/13 12:28:42;;;;;;;29.75;5.35;;;;;;;;;;5105245;28;20051;-72
2023/01/13 12:31:08;;;;;;;24.92;4.13;;;;;;;;;;5105581;28;20032;-72
2023/01/13 12:33:47;;;;;;;28.40;5.00;;;;;;;;;;5090663;28;20493;-72
2023/01/13 12:36:18;;;;;;;27.02;4.07;;;;;;;;;;5106934;28;20051;-72
2023/01/13 12:38:49;;;;;;;27.50;6.17;;;;;;;;;;5102842;28;20468;-72
2023/01/13 12:41:31;;;;;;;23.65;4.53;;;;;;;;;;5095259;28;20458;-73
2023/01/13 12:44:15;;;;;;;27.05;4.57;;;;;;;;;;5103616;27;20056;-72
2023/01/13 12:46:46;;;;;;;20.75;3.28;;;;;;;;;;5112440;28;20051;-72
2023/01/13 12:49:19;;;;;;;22.70;4.72;;;;;;;;;;5102516;27;20048;-73
2023/01/13 12:52:06;;;;;;;26.80;4.53;;;;;;;;;;5103435;28;20820;-74
2023/01/13 12:54:38;;;;;;;23.50;3.83;;;;;;;;;;5087185;28;20060;-73
2023/01/13 12:57:20;;;;;;;19.55;3.28;;;;;;;;;;5114610;28;20035;-72
2023/01/13 13:00:10;;;;;;;24.65;3.88;;;;;;;;;;5115602;27;20042;-72
2023/01/13 13:02:38;;;;;;;23.25;4.22;;;;;;;;;;5113066;27;20044;-72
2023/01/13 13:05:22;;;;;;;19.40;3.25;;;;;;;;;;5105117;27;20407;-72
2023/01/13 13:07:51;;;;;;;19.95;2.95;;;;;;;;;;5097183;27;20044;-72
2023/01/13 13:10:27;;;;;;;17.20;2.88;;;;;;;;;;5103898;28;20509;-72
2023/01/13 13:13:19;;;;;;;18.58;3.00;;;;;;;;;;5101332;27;20127;-72
2023/01/13 13:15:47;;;;;;;19.67;2.90;;;;;;;;;;5104690;28;20039;-73
2023/01/13 13:18:19;;;;;;;22.27;3.80;;;;;;;;;;5109781;28;20051;-73
2023/01/13 13:20:53;;;;;;;16.00;3.03;;;;;;;;;;5086679;28;20047;-73
2023/01/13 13:23:34;;;;;;;18.38;2.90;;;;;;;;;;5102767;27;20494;-72
2023/01/13 13:26:22;;;;;;;17.23;3.13;;;;;;;;;;5094661;28;20051;-70
2023/01/13 13:28:51;;;;;;;14.73;2.67;;;;;;;;;;5108090;28;20043;-73
2023/01/13 13:31:36;;;;;;;15.60;2.70;;;;;;;;;;5096663;28;20040;-72
2023/01/13 13:34:13;;;;;;;16.45;2.95;;;;;;;;;;5114851;28;20425;-73
2023/01/13 13:36:53;;;;;;;19.00;3.17;;;;;;;;;;5114377;28;20050;-72
2023/01/13 13:46:45;;;;;;;18.25;2.60;;;;;;;;;;5106462;28;20126;-72
2023/01/13 13:48:38;;;;;;;16.52;2.67;;;;;;;;;;5114742;28;20086;-72
2023/01/13 13:51:21;;;;;;;16.75;2.63;;;;;;;;;;5083123;28;20052;-73
2023/01/13 13:53:47;;;;;;;17.25;2.78;;;;;;;;;;5107132;28;20051;-72
2023/01/13 13:56:19;;;;;;;18.58;2.70;;;;;;;;;;5110334;28;20050;-74
2023/01/13 13:58:46;;;;;;;14.30;2.58;;;;;;;;;;5113837;28;20074;-73
2023/01/13 14:01:21;;;;;;;11.52;1.80;;;;;;;;;;5108555;28;20039;-73
2023/01/13 14:04:02;;;;;;;20.55;2.50;;;;;;;;;;5103520;28;20051;-73
2023/01/13 14:06:28;;;;;;;13.95;2.20;;;;;;;;;;5112619;28;20055;-73
2023/01/13 14:08:54;;;;;;;12.65;2.00;;;;;;;;;;5113867;28;20038;-73
2023/01/13 14:11:31;;;;;;;11.68;1.85;;;;;;;;;;5118834;27;20051;-72
2023/01/13 14:14:04;;;;;;;15.55;2.20;;;;;;;;;;5119623;27;20039;-73
2023/01/13 14:16:31;;;;;;;11.75;2.13;;;;;;;;;;5111138;28;20054;-73
2023/01/13 14:18:57;;;;;;;14.40;2.35;;;;;;;;;;5112402;28;20043;-73
2023/01/13 14:21:30;;;;;;;15.10;2.75;;;;;;;;;;5111367;28;20067;-73
2023/01/13 14:23:56;;;;;;;15.73;2.47;;;;;;;;;;5112468;28;20085;-73
2023/01/13 14:26:26;;;;;;;18.00;2.45;;;;;;;;;;5110779;28;20097;-73
2023/01/13 14:28:52;;;;;;;15.43;2.67;;;;;;;;;;5100536;28;20063;-73
2023/01/13 14:31:19;;;;;;;15.95;2.65;;;;;;;;;;5097566;28;20200;-72
2023/01/13 14:33:46;;;;;;;17.73;2.47;;;;;;;;;;5111857;28;20036;-72
2023/01/13 14:36:42;;;;;;;12.40;2.03;;;;;;;;;;5113903;28;20050;-72
2023/01/13 14:39:10;;;;;;;16.63;2.70;;;;;;;;;;5088346;28;20051;-72
2023/01/13 14:41:39;;;;;;;16.05;2.97;;;;;;;;;;5093456;28;20375;-72
2023/01/13 14:44:26;;;;;;;14.60;2.40;;;;;;;;;;5103528;28;20509;-72
2023/01/13 14:46:56;;;;;;;15.85;2.47;;;;;;;;;;5093471;28;20389;-72
2023/01/13 14:49:24;;;;;;;9.77;2.03;;;;;;;;;;5094305;28;20036;-71
2023/01/13 14:51:50;;;;;;;16.17;2.63;;;;;;;;;;5108322;28;20400;-71
2023/01/13 14:54:49;;;;;;;12.88;2.42;;;;;;;;;;5110473;28;20050;-71
2023/01/13 14:57:18;;;;;;;15.57;2.55;;;;;;;;;;5079595;28;20054;-74
2023/01/13 14:59:44;;;;;;;11.73;2.13;;;;;;;;;;5113459;28;20123;-72
2023/01/13 15:02:39;;;;;;;19.35;3.20;;;;;;;;;;5110203;28;20131;-72
2023/01/13 15:05:17;;;;;;;13.32;2.38;;;;;;;;;;5108293;28;20051;-73
2023/01/13 15:07:50;;;;;;;13.38;2.10;;;;;;;;;;5094438;28;20048;-74
2023/01/13 15:10:20;;;;;;;13.52;2.53;;;;;;;;;;5100349;28;20442;-74
2023/01/13 15:12:49;;;;;;;15.52;2.75;;;;;;;;;;5112807;27;20055;-73
2023/01/13 15:15:33;;;;;;;15.63;2.65;;;;;;;;;;5110885;27;20059;-72
2023/01/13 15:18:00;;;;;;;13.35;2.15;;;;;;;;;;5104811;28;20085;-74
2023/01/13 15:20:26;;;;;;;15.07;2.17;;;;;;;;;;5109044;28;20047;-74
2023/01/13 15:22:53;;;;;;;18.67;2.55;;;;;;;;;;5111781;28;20031;-74
2023/01/13 15:25:19;;;;;;;8.70;2.25;;;;;;;;;;5104949;28;20051;-71
2023/01/13 15:27:49;;;;;;;13.55;2.38;;;;;;;;;;5106825;27;20042;-76
2023/01/13 15:30:15;;;;;;;15.65;2.90;;;;;;;;;;5105891;27;20458;-74
2023/01/13 15:32:41;;;;;;;12.95;2.17;;;;;;;;;;5105747;28;20093;-72
2023/01/13 15:35:09;;;;;;;13.85;2.78;;;;;;;;;;5111769;27;20044;-73
2023/01/13 15:37:35;;;;;;;14.50;2.30;;;;;;;;;;5100012;28;20482;-73
2023/01/13 15:40:02;;;;;;;14.27;2.95;;;;;;;;;;5107959;28;20047;-73